Time;durP1;ratioP1;P1;durP2;ratioP2;P2;SDS_P1;SDS_P2;PMS_P1;PMS_P2;Temp;Humidity;BMP_temperature;BMP_pressure;BME280_temperature;BME280_humidity;BME280_pressure;Samples;Min_cycle;Max_cycle;Signal;HPM_P1;HPM_P2
2023/07/09 00:00:52;;;;;;;17.42;7.70;;;;;;;22.44;100.00;101322.97;4933893;29;20056;-73
2023/07/09 00:03:19;;;;;;;14.07;6.72;;;;;;;22.40;100.00;101319.56;4938648;29;20075;-72
2023/07/09 00:05:48;;;;;;;17.52;7.18;;;;;;;22.36;100.00;101323.84;4944043;28;20060;-71
2023/07/09 00:08:27;;;;;;;16.75;7.72;;;;;;;22.35;100.00;101319.44;4933001;29;20158;-76
2023/07/09 00:10:57;;;;;;;16.23;7.13;;;;;;;22.27;100.00;101313.34;4932105;29;20138;-74
2023/07/09 00:13:26;;;;;;;19.38;8.50;;;;;;;22.23;100.00;101320.44;4931385;29;20071;-74
2023/07/09 00:15:57;;;;;;;14.27;7.10;;;;;;;22.14;100.00;101313.59;4929548;29;20065;-73
2023/07/09 00:18:24;;;;;;;16.00;7.25;;;;;;;22.11;100.00;101314.56;4930819;29;20517;-75
2023/07/09 00:20:50;;;;;;;15.82;7.50;;;;;;;22.08;100.00;101304.19;4930581;29;20073;-73
2023/07/09 00:23:20;;;;;;;15.70;6.88;;;;;;;22.01;100.00;101310.22;4930288;29;20075;-74
2023/07/09 00:25:47;;;;;;;17.83;7.05;;;;;;;21.94;100.00;101310.59;4933237;29;20051;-73
2023/07/09 00:28:17;;;;;;;16.95;7.25;;;;;;;21.87;100.00;101310.97;4925761;29;20052;-74
2023/07/09 00:30:45;;;;;;;16.33;7.97;;;;;;;21.87;100.00;101310.16;4930180;29;20651;-75
2023/07/09 00:33:14;;;;;;;15.75;7.40;;;;;;;21.84;100.00;101322.47;4931270;29;20052;-74
2023/07/09 00:35:42;;;;;;;17.02;7.05;;;;;;;21.79;100.00;101309.75;4929709;29;20156;-73
2023/07/09 00:38:14;;;;;;;16.27;7.28;;;;;;;21.74;100.00;101318.91;4931458;29;20115;-74
2023/07/09 00:41:05;;;;;;;13.13;6.55;;;;;;;21.67;100.00;101313.59;4930349;29;20446;-74
2023/07/09 00:43:36;;;;;;;16.13;7.35;;;;;;;21.63;100.00;101313.00;4929190;29;20051;-75
2023/07/09 00:46:26;;;;;;;16.88;7.80;;;;;;;21.59;100.00;101309.53;4929279;29;20055;-73
2023/07/09 00:48:59;;;;;;;15.57;7.47;;;;;;;21.59;100.00;101309.53;4929676;29;20066;-74
2023/07/09 00:51:28;;;;;;;15.48;7.00;;;;;;;21.58;100.00;101315.66;4928771;29;20072;-74
2023/07/09 00:54:00;;;;;;;18.10;8.20;;;;;;;21.53;100.00;101316.31;4930928;29;20064;-74
2023/07/09 00:56:38;;;;;;;18.73;7.32;;;;;;;21.46;100.00;101317.44;4930467;29;20051;-73
2023/07/09 00:59:09;;;;;;;18.63;7.20;;;;;;;21.41;100.00;101320.94;4928910;29;20039;-74
2023/07/09 01:01:36;;;;;;;16.63;7.28;;;;;;;21.17;100.00;101285.38;4930538;29;20083;-74
2023/07/09 01:04:03;;;;;;;17.08;7.63;;;;;;;21.31;100.00;101315.78;4929711;29;20086;-73
2023/07/09 01:06:44;;;;;;;16.15;7.28;;;;;;;21.25;100.00;101318.47;4928925;29;20087;-73
2023/07/09 01:09:11;;;;;;;18.45;7.35;;;;;;;21.25;100.00;101312.03;4922298;29;20063;-75
2023/07/09 01:11:40;;;;;;;17.75;7.28;;;;;;;21.22;100.00;101313.78;4929043;29;20158;-74
2023/07/09 01:14:16;;;;;;;16.27;7.32;;;;;;;21.15;100.00;101322.59;4930579;29;20714;-74
2023/07/09 01:16:56;;;;;;;15.38;6.90;;;;;;;21.13;100.00;101325.13;4929840;29;20168;-74
2023/07/09 01:19:25;;;;;;;18.17;7.63;;;;;;;21.09;100.00;101316.03;4929924;29;20055;-73
2023/07/09 01:22:00;;;;;;;14.10;6.40;;;;;;;21.04;100.00;101316.69;4927877;29;20051;-73
2023/07/09 01:25:07;;;;;;;17.55;7.47;;;;;;;21.04;100.00;101313.84;4934985;29;20107;-73
2023/07/09 01:27:40;;;;;;;15.25;6.35;;;;;;;21.03;100.00;101317.91;4877954;29;20093;-74
2023/07/09 01:30:14;;;;;;;16.75;7.10;;;;;;;21.02;100.00;101316.34;4862143;29;20245;-73
2023/07/09 01:32:45;;;;;;;16.90;7.40;;;;;;;20.97;100.00;101314.19;4860818;29;20045;-74
2023/07/09 01:35:14;;;;;;;16.95;7.38;;;;;;;20.93;100.00;101313.53;4876554;29;20092;-74
2023/07/09 01:37:43;;;;;;;16.50;7.38;;;;;;;20.85;100.00;101315.13;4861673;29;20124;-74
2023/07/09 01:40:12;;;;;;;16.55;7.25;;;;;;;20.82;100.00;101318.88;4874377;29;20147;-74
2023/07/09 01:42:58;;;;;;;17.65;7.13;;;;;;;20.81;100.00;101313.69;4865059;29;20638;-73
2023/07/09 01:45:25;;;;;;;15.90;7.45;;;;;;;20.75;100.00;101324.88;4878138;29;20048;-74
2023/07/09 01:47:53;;;;;;;13.85;7.07;;;;;;;20.73;100.00;101318.13;4858696;29;20053;-74
2023/07/09 01:50:20;;;;;;;14.55;6.53;;;;;;;20.75;100.00;101324.88;4877672;29;20539;-74
2023/07/09 01:52:49;;;;;;;14.35;6.70;;;;;;;20.74;100.00;101314.03;4854900;29;20067;-73
2023/07/09 01:55:16;;;;;;;15.55;6.13;;;;;;;20.68;100.00;101325.19;4883087;29;20064;-74
2023/07/09 01:57:45;;;;;;;13.45;6.47;;;;;;;20.63;100.00;101320.19;4884242;29;20056;-74
2023/07/09 02:00:14;;;;;;;15.68;6.35;;;;;;;20.55;100.00;101327.41;4927185;29;20316;-73
2023/07/09 02:02:42;;;;;;;14.93;7.15;;;;;;;20.55;100.00;101327.41;4929047;29;20059;-74
2023/07/09 02:05:12;;;;;;;15.10;7.03;;;;;;;20.52;100.00;101314.22;4930370;29;20054;-74
2023/07/09 02:07:39;;;;;;;14.27;6.35;;;;;;;20.54;100.00;101320.19;4925776;29;20051;-73
2023/07/09 02:10:07;;;;;;;15.18;7.10;;;;;;;20.51;100.00;101321.13;4926636;29;20586;-75
2023/07/09 02:12:34;;;;;;;16.42;6.88;;;;;;;20.49;100.00;101323.63;4928272;29;20052;-74
2023/07/09 02:15:01;;;;;;;16.80;7.22;;;;;;;20.43;100.00;101322.72;4928333;29;20118;-74
2023/07/09 02:17:27;;;;;;;16.92;6.95;;;;;;;20.40;100.00;101320.81;4928701;29;20055;-75
2023/07/09 02:19:54;;;;;;;19.10;6.78;;;;;;;20.37;100.00;101330.22;4927927;29;20188;-74
2023/07/09 02:22:21;;;;;;;15.05;6.60;;;;;;;20.37;100.00;101329.44;4943038;28;20055;-76
2023/07/09 02:24:47;;;;;;;16.58;7.05;;;;;;;20.33;100.00;101323.16;4930397;29;20052;-74
2023/07/09 02:27:17;;;;;;;17.45;6.80;;;;;;;20.26;100.00;101324.28;4928045;29;20100;-73
2023/07/09 02:29:44;;;;;;;15.90;7.00;;;;;;;20.28;100.00;101326.63;4929882;29;20507;-73
2023/07/09 02:32:18;;;;;;;13.68;6.47;;;;;;;20.27;100.00;101325.03;4930691;29;20130;-72
2023/07/09 02:34:48;;;;;;;16.35;6.57;;;;;;;20.24;100.00;101329.59;4923721;28;20056;-73
2023/07/09 02:37:19;;;;;;;15.52;6.53;;;;;;;20.21;100.00;101327.69;4927755;29;20901;-74
2023/07/09 02:39:46;;;;;;;14.82;6.53;;;;;;;20.20;100.00;101334.59;4929374;29;20111;-75
2023/07/09 02:42:14;;;;;;;15.05;6.38;;;;;;;20.20;100.00;101328.94;4928947;29;20094;-73
2023/07/09 02:44:42;;;;;;;13.60;6.57;;;;;;;20.19;100.00;101341.50;4930898;29;20529;-74
2023/07/09 02:47:09;;;;;;;16.77;7.60;;;;;;;20.18;100.00;101336.31;4926194;29;20344;-74
2023/07/09 02:49:36;;;;;;;15.70;6.97;;;;;;;20.14;100.00;101339.28;4929964;29;20522;-74
2023/07/09 02:52:04;;;;;;;14.40;6.47;;;;;;;20.08;100.00;101338.31;4931475;29;20060;-74
2023/07/09 02:54:31;;;;;;;16.17;7.45;;;;;;;20.09;100.00;101341.94;4931464;28;20071;-74
2023/07/09 02:56:57;;;;;;;16.98;7.00;;;;;;;20.07;100.00;101345.22;4926989;29;20162;-76
2023/07/09 02:59:26;;;;;;;15.95;7.05;;;;;;;20.06;100.00;101345.69;4931115;29;20067;-74
2023/07/09 03:01:53;;;;;;;16.17;6.55;;;;;;;20.00;100.00;101339.09;4928454;29;20531;-73
2023/07/09 03:04:20;;;;;;;14.27;7.00;;;;;;;19.95;100.00;101348.97;4932416;29;20070;-76
2023/07/09 03:06:47;;;;;;;16.52;7.40;;;;;;;19.91;100.00;101348.31;4923420;29;20048;-75
2023/07/09 03:09:13;;;;;;;18.40;6.65;;;;;;;19.84;100.00;101348.63;4931418;29;20409;-74
2023/07/09 03:11:40;;;;;;;14.60;7.32;;;;;;;19.82;100.00;101353.97;4932255;29;20056;-76
2023/07/09 03:14:08;;;;;;;15.70;6.57;;;;;;;19.73;100.00;101353.94;4931722;29;20052;-72
2023/07/09 03:16:35;;;;;;;17.52;7.05;;;;;;;19.76;100.00;101355.81;4929231;29;20057;-73
2023/07/09 03:19:04;;;;;;;15.43;7.22;;;;;;;19.72;100.00;101363.66;4933505;29;20047;-74
2023/07/09 03:21:32;;;;;;;17.45;7.20;;;;;;;19.70;100.00;101363.31;4930341;29;20486;-76
2023/07/09 03:23:59;;;;;;;16.75;6.78;;;;;;;19.71;100.00;101362.84;4930587;29;20057;-76
2023/07/09 03:26:25;;;;;;;13.25;6.20;;;;;;;19.73;100.00;101368.84;4929245;29;20517;-73
2023/07/09 03:28:53;;;;;;;16.35;6.85;;;;;;;19.73;100.00;101376.50;4932090;29;20052;-75
2023/07/09 03:31:20;;;;;;;16.98;7.47;;;;;;;19.66;100.00;101371.94;4933895;29;20079;-73
2023/07/09 03:33:51;;;;;;;15.35;6.85;;;;;;;19.63;100.00;101377.72;4932243;29;20065;-75
2023/07/09 03:36:19;;;;;;;16.33;7.63;;;;;;;19.65;100.00;101380.88;4932703;29;20052;-72
2023/07/09 03:38:47;;;;;;;15.30;6.90;;;;;;;19.63;100.00;101380.53;4925827;29;20542;-75
2023/07/09 03:41:14;;;;;;;15.43;7.32;;;;;;;19.59;100.00;101374.25;4932634;29;20458;-74
2023/07/09 03:43:40;;;;;;;17.45;7.10;;;;;;;19.55;100.00;101373.63;4932088;29;20430;-75
2023/07/09 03:46:07;;;;;;;18.08;7.57;;;;;;;19.54;100.00;101384.09;4930810;29;20095;-75
2023/07/09 03:48:33;;;;;;;15.45;7.03;;;;;;;19.57;100.00;101379.56;4932624;29;20071;-74
2023/07/09 03:51:00;;;;;;;15.02;7.20;;;;;;;19.53;100.00;101382.53;4928854;29;20059;-74
2023/07/09 03:53:27;;;;;;;16.15;7.40;;;;;;;19.54;100.00;101383.31;4932441;29;20107;-75
2023/07/09 03:55:59;;;;;;;13.70;6.53;;;;;;;19.53;100.00;101381.75;4929881;29;20585;-75
2023/07/09 03:58:27;;;;;;;14.50;7.25;;;;;;;19.52;100.00;101383.78;4946741;28;20095;-74
2023/07/09 04:00:56;;;;;;;16.42;8.23;;;;;;;19.51;100.00;101387.06;4931381;29;20083;-74
2023/07/09 04:03:23;;;;;;;16.45;6.93;;;;;;;19.51;100.00;101379.38;4930833;29;20079;-74
2023/07/09 04:05:50;;;;;;;18.17;7.88;;;;;;;19.50;100.00;101383.47;4926059;29;20099;-75
2023/07/09 04:08:17;;;;;;;18.45;7.72;;;;;;;19.52;100.00;101383.00;4930417;29;20502;-74
2023/07/09 04:10:43;;;;;;;17.45;8.05;;;;;;;19.52;100.00;101385.81;4947010;28;20111;-74
2023/07/09 04:13:10;;;;;;;17.85;8.15;;;;;;;19.49;100.00;101376.25;4929504;29;20051;-74
2023/07/09 04:15:36;;;;;;;16.90;7.88;;;;;;;19.48;100.00;101391.59;4938273;29;20471;-74
2023/07/09 04:18:03;;;;;;;15.45;7.18;;;;;;;19.49;100.00;101386.75;4931125;29;21796;-74
2023/07/09 04:20:30;;;;;;;15.43;6.95;;;;;;;19.57;100.00;101388.03;4927855;29;20059;-75
2023/07/09 04:22:56;;;;;;;17.73;7.40;;;;;;;19.60;100.00;101385.06;4931331;29;20052;-74
2023/07/09 04:25:23;;;;;;;19.08;8.20;;;;;;;19.60;100.00;101384.28;4929939;29;20078;-74
2023/07/09 04:27:50;;;;;;;17.75;8.00;;;;;;;19.55;100.00;101385.66;4930775;29;20056;-74
2023/07/09 04:30:17;;;;;;;17.98;7.82;;;;;;;19.59;100.00;101388.34;4931795;29;20063;-74
2023/07/09 04:32:43;;;;;;;16.77;7.57;;;;;;;19.59;100.00;101382.72;4932628;29;20051;-74
2023/07/09 04:35:12;;;;;;;16.17;7.30;;;;;;;19.60;100.00;101389.91;4928062;29;20166;-74
2023/07/09 04:37:40;;;;;;;17.00;8.02;;;;;;;19.61;100.00;101385.84;4932632;29;20461;-75
2023/07/09 04:40:10;;;;;;;21.13;8.10;;;;;;;19.70;100.00;101388.72;4932706;29;20131;-74
2023/07/09 04:42:38;;;;;;;18.88;7.93;;;;;;;19.75;100.00;101390.94;4932127;29;20055;-74
2023/07/09 04:45:06;;;;;;;15.30;7.70;;;;;;;19.77;100.00;101402.53;4929154;29;20059;-74
2023/07/09 04:47:32;;;;;;;15.35;7.32;;;;;;;19.82;100.00;101396.28;4924389;29;20083;-74
2023/07/09 04:49:59;;;;;;;16.20;7.45;;;;;;;19.85;100.00;101392.53;4926905;29;21900;-74
2023/07/09 04:52:26;;;;;;;19.48;8.13;;;;;;;19.88;100.00;101394.41;4928348;29;20127;-74
2023/07/09 04:54:52;;;;;;;16.45;7.50;;;;;;;19.86;100.00;101391.28;4929494;29;20711;-74
2023/07/09 04:57:19;;;;;;;17.80;8.40;;;;;;;19.96;100.00;101398.53;4930466;29;20056;-75
2023/07/09 04:59:46;;;;;;;17.17;7.75;;;;;;;19.99;100.00;101393.97;4929577;29;20091;-75
2023/07/09 05:02:12;;;;;;;15.85;7.65;;;;;;;20.06;100.00;101388.84;4930623;29;20761;-75
2023/07/09 05:04:39;;;;;;;18.05;8.25;;;;;;;20.08;100.00;101391.94;4927579;29;20586;-76
2023/07/09 05:07:06;;;;;;;16.83;8.23;;;;;;;20.23;100.00;101395.78;4926688;29;20526;-75
2023/07/09 05:09:33;;;;;;;18.13;8.30;;;;;;;20.31;100.00;101394.22;4929913;29;20044;-74
2023/07/09 05:12:00;;;;;;;17.52;8.15;;;;;;;20.39;100.00;101387.00;4930894;29;20055;-74
2023/07/09 05:14:27;;;;;;;19.65;7.75;;;;;;;20.52;100.00;101396.13;4929125;29;20072;-74
2023/07/09 05:16:54;;;;;;;15.63;7.47;;;;;;;20.60;100.00;101393.78;4928008;29;20052;-74
2023/07/09 05:19:21;;;;;;;17.25;7.93;;;;;;;20.69;100.00;101393.78;4930148;29;20052;-75
2023/07/09 05:21:47;;;;;;;19.45;8.52;;;;;;;20.77;100.00;101393.00;4931923;29;20631;-75
2023/07/09 05:24:14;;;;;;;16.02;8.35;;;;;;;20.85;100.00;101399.09;4923342;29;20051;-75
2023/07/09 05:26:40;;;;;;;18.25;8.68;;;;;;;20.94;100.00;101401.97;4931593;29;20055;-74
2023/07/09 05:29:07;;;;;;;18.65;8.80;;;;;;;21.02;100.00;101398.34;4926115;29;20466;-74
2023/07/09 05:31:33;;;;;;;19.77;8.32;;;;;;;21.13;100.00;101404.28;4926682;29;20055;-76
2023/07/09 05:34:00;;;;;;;20.00;7.88;;;;;;;21.22;100.00;101400.66;4930586;29;20063;-74
2023/07/09 05:36:28;;;;;;;15.77;7.95;;;;;;;21.32;100.00;101408.63;4929078;29;20075;-74
2023/07/09 05:38:55;;;;;;;18.30;7.75;;;;;;;21.42;100.00;101398.09;4929348;29;20051;-74
2023/07/09 05:41:23;;;;;;;16.60;7.50;;;;;;;21.51;100.00;101404.50;4931174;29;20667;-74
2023/07/09 05:43:51;;;;;;;17.83;8.02;;;;;;;21.60;100.00;101407.28;4931516;29;20062;-74
2023/07/09 05:46:19;;;;;;;18.20;8.02;;;;;;;21.69;100.00;101404.47;4931124;29;20432;-74
2023/07/09 05:48:45;;;;;;;18.58;8.32;;;;;;;21.76;100.00;101401.28;4929534;29;20051;-76
2023/07/09 05:51:12;;;;;;;16.10;7.45;;;;;;;21.84;100.00;101404.56;4924221;29;20147;-73
2023/07/09 05:53:39;;;;;;;18.98;7.80;;;;;;;21.90;100.00;101406.25;4927843;29;20478;-75
2023/07/09 05:56:06;;;;;;;16.05;7.85;;;;;;;21.93;100.00;101402.47;4942717;29;20143;-75
2023/07/09 05:58:33;;;;;;;18.25;7.97;;;;;;;22.03;100.00;101401.16;4927695;29;20055;-74
2023/07/09 06:00:59;;;;;;;20.52;7.93;;;;;;;22.15;100.00;101410.69;4931064;29;20062;-71
2023/07/09 06:03:27;;;;;;;16.42;7.85;;;;;;;22.27;100.00;101411.72;4929789;29;20148;-75
2023/07/09 06:05:54;;;;;;;18.85;7.50;;;;;;;22.37;100.00;101421.75;4929088;29;20115;-74
2023/07/09 06:08:21;;;;;;;16.30;7.35;;;;;;;22.46;100.00;101413.97;4928298;28;20056;-75
2023/07/09 06:11:00;;;;;;;17.85;8.15;;;;;;;22.57;100.00;101413.38;4928460;29;20106;-75
2023/07/09 06:13:30;;;;;;;19.45;8.27;;;;;;;22.70;100.00;101413.91;4926873;29;20048;-74
2023/07/09 06:15:58;;;;;;;18.40;8.10;;;;;;;22.80;100.00;101406.91;4928157;29;20054;-73
2023/07/09 06:18:29;;;;;;;17.27;7.00;;;;;;;22.88;100.00;101405.28;4929876;29;20122;-74
2023/07/09 06:21:00;;;;;;;21.10;8.63;;;;;;;23.00;100.00;101410.69;4929486;29;20079;-76
2023/07/09 06:23:27;;;;;;;17.98;7.82;;;;;;;23.08;100.00;101409.03;4929320;29;20047;-74
2023/07/09 06:25:54;;;;;;;17.83;7.20;;;;;;;23.19;100.00;101408.47;4928964;29;20047;-74
2023/07/09 06:28:23;;;;;;;17.92;7.38;;;;;;;23.29;100.00;101413.53;4928492;29;20083;-74
2023/07/09 06:30:50;;;;;;;19.30;7.60;;;;;;;23.42;100.00;101416.84;4931027;29;20106;-74
2023/07/09 06:33:19;;;;;;;17.75;7.45;;;;;;;23.49;100.00;101415.69;4927321;29;20528;-74
2023/07/09 06:35:47;;;;;;;15.70;7.25;;;;;;;23.58;100.00;101412.72;4930736;29;20586;-75
2023/07/09 06:38:14;;;;;;;15.27;7.15;;;;;;;23.68;100.00;101417.06;4926085;29;20099;-75
2023/07/09 06:40:41;;;;;;;16.70;7.22;;;;;;;23.77;100.00;101405.59;4927231;29;20084;-76
2023/07/09 06:43:08;;;;;;;18.73;8.10;;;;;;;23.90;100.00;101408.91;4931358;29;20576;-76
2023/07/09 06:45:34;;;;;;;17.98;7.13;;;;;;;24.02;100.00;101413.44;4931280;28;20114;-74
2023/07/09 06:48:01;;;;;;;17.58;7.22;;;;;;;24.13;100.00;101422.91;4939756;29;20059;-73
2023/07/09 06:50:28;;;;;;;17.67;7.30;;;;;;;24.25;100.00;101423.91;4931807;28;20099;-73
2023/07/09 06:52:55;;;;;;;17.90;7.28;;;;;;;24.33;100.00;101416.50;4941275;29;20052;-72
2023/07/09 06:55:22;;;;;;;21.17;7.70;;;;;;;24.44;100.00;101422.34;4933022;29;20060;-72
2023/07/09 06:57:48;;;;;;;22.30;7.93;;;;;;;24.54;100.00;101423.78;4932700;29;20177;-72
2023/07/09 07:00:15;;;;;;;16.67;7.18;;;;;;;24.60;100.00;101415.31;4931577;29;20043;-71
2023/07/09 07:02:42;;;;;;;15.68;7.57;;;;;;;24.64;100.00;101422.34;4930865;29;20401;-72
2023/07/09 07:05:08;;;;;;;18.27;6.78;;;;;;;24.70;100.00;101422.41;4934699;29;20051;-75
2023/07/09 07:07:35;;;;;;;17.42;7.43;;;;;;;24.84;100.00;101416.66;4935956;28;20047;-72
2023/07/09 07:10:03;;;;;;;16.27;7.45;;;;;;;24.97;100.00;101419.13;4931240;29;20107;-74
2023/07/09 07:12:45;;;;;;;17.50;7.68;;;;;;;25.06;100.00;101410.41;4932467;29;20051;-73
2023/07/09 07:15:13;;;;;;;15.85;7.55;;;;;;;25.26;100.00;101419.69;4933346;29;20517;-73
2023/07/09 07:17:40;;;;;;;17.30;7.93;;;;;;;25.40;100.00;101426.53;4932447;29;20058;-74
2023/07/09 07:20:09;;;;;;;15.50;6.88;;;;;;;25.46;100.00;101421.69;4930412;29;20043;-73
2023/07/09 07:22:36;;;;;;;16.35;7.88;;;;;;;25.59;100.00;101414.34;4931617;29;20132;-73
2023/07/09 07:25:04;;;;;;;17.80;7.13;;;;;;;25.75;100.00;101404.34;4928844;29;20047;-74
2023/07/09 07:27:31;;;;;;;16.80;7.95;;;;;;;25.86;100.00;101405.22;4925687;29;20087;-74
2023/07/09 07:29:58;;;;;;;18.20;7.40;;;;;;;25.97;100.00;101410.97;4925006;29;20722;-73
2023/07/09 07:32:25;;;;;;;17.00;7.40;;;;;;;26.08;100.00;101408.22;4932657;29;20054;-76
2023/07/09 07:34:52;;;;;;;15.27;7.22;;;;;;;26.18;100.00;101400.22;4931760;29;20055;-73
2023/07/09 07:37:20;;;;;;;15.05;7.38;;;;;;;26.33;100.00;101403.69;4929798;29;20075;-71
2023/07/09 07:39:48;;;;;;;15.75;7.40;;;;;;;26.42;100.00;101404.25;4932613;29;20051;-72
2023/07/09 07:42:15;;;;;;;17.23;6.80;;;;;;;26.53;100.00;101414.94;4932347;29;20078;-73
2023/07/09 07:44:41;;;;;;;18.92;7.32;;;;;;;26.64;100.00;101412.16;4931459;29;20111;-73
2023/07/09 07:47:08;;;;;;;17.60;7.15;;;;;;;26.73;100.00;101412.69;4928524;29;20048;-74
2023/07/09 07:49:35;;;;;;;21.25;7.93;;;;;;;26.85;100.00;101409.88;4931881;29;20047;-73
2023/07/09 07:52:03;;;;;;;19.17;7.05;;;;;;;26.94;100.00;101419.00;4930749;29;20103;-75
2023/07/09 07:54:31;;;;;;;16.83;7.07;;;;;;;27.04;100.00;101405.25;4925578;29;20451;-76
2023/07/09 07:56:58;;;;;;;19.52;7.63;;;;;;;27.16;100.00;101416.16;4932284;29;20439;-74
2023/07/09 07:59:25;;;;;;;15.98;7.93;;;;;;;27.25;100.00;101403.75;4928837;29;20447;-74
2023/07/09 08:01:51;;;;;;;16.15;7.55;;;;;;;27.35;100.00;101405.06;4929420;29;20063;-74
2023/07/09 08:04:18;;;;;;;15.18;7.07;;;;;;;27.45;100.00;101407.16;4933194;29;20625;-74
2023/07/09 08:06:46;;;;;;;15.65;7.32;;;;;;;27.57;100.00;101407.94;4920090;29;20082;-74
2023/07/09 08:09:13;;;;;;;17.50;7.75;;;;;;;27.66;100.00;101410.50;4929194;29;20054;-74
2023/07/09 08:11:39;;;;;;;16.75;7.95;;;;;;;27.76;100.00;101401.19;4927062;29;20060;-73
2023/07/09 08:14:06;;;;;;;18.80;7.72;;;;;;;27.79;100.00;101394.44;4945785;28;20559;-75
2023/07/09 08:16:33;;;;;;;16.63;7.10;;;;;;;27.93;100.00;101396.22;4929873;29;20056;-77
2023/07/09 08:18:59;;;;;;;17.00;8.20;;;;;;;28.03;100.00;101388.13;4931652;29;20059;-75
2023/07/09 08:21:26;;;;;;;20.30;7.10;;;;;;;28.18;100.00;101389.38;4930584;29;20134;-76
2023/07/09 08:23:52;;;;;;;17.98;7.13;;;;;;;28.27;100.00;101388.34;4930421;29;20051;-75
2023/07/09 08:26:19;;;;;;;17.25;7.13;;;;;;;28.38;100.00;101391.19;4927750;29;20142;-73
2023/07/09 08:28:46;;;;;;;15.93;7.35;;;;;;;28.43;100.00;101401.81;4926911;29;20584;-74
2023/07/09 08:31:12;;;;;;;16.23;6.88;;;;;;;28.53;100.00;101403.06;4931758;29;20063;-76
2023/07/09 08:33:40;;;;;;;23.98;7.95;;;;;;;28.59;100.00;101401.75;4937253;28;20142;-72
2023/07/09 08:36:06;;;;;;;18.58;7.20;;;;;;;28.67;100.00;101396.25;4931166;29;20062;-73
2023/07/09 08:38:33;;;;;;;18.20;8.18;;;;;;;28.76;100.00;101388.13;4932426;29;20055;-75
2023/07/09 08:41:02;;;;;;;20.45;7.75;;;;;;;28.84;100.00;101383.44;4932839;29;20090;-73
2023/07/09 08:43:49;;;;;;;20.42;8.00;;;;;;;28.91;100.00;101384.94;4928548;29;20051;-74
2023/07/09 08:46:44;;;;;;;16.10;7.20;;;;;;;29.02;100.00;101384.88;4931463;29;20134;-74
2023/07/09 08:49:23;;;;;;;19.70;7.72;;;;;;;29.05;100.00;101375.22;4930226;29;20055;-72
2023/07/09 08:51:51;;;;;;;17.38;7.25;;;;;;;29.27;100.00;101377.16;4930924;29;20165;-74
2023/07/09 08:54:27;;;;;;;15.52;7.47;;;;;;;29.43;100.00;101377.06;4931214;29;20721;-72
2023/07/09 08:57:01;;;;;;;15.30;7.60;;;;;;;29.60;100.00;101377.69;4930005;29;20054;-73
2023/07/09 08:59:28;;;;;;;21.10;8.30;;;;;;;29.70;100.00;101378.09;4929008;29;20059;-75
2023/07/09 09:01:59;;;;;;;16.05;6.93;;;;;;;29.84;100.00;101374.09;4928059;29;20055;-75
2023/07/09 09:04:34;;;;;;;18.92;8.18;;;;;;;29.94;100.00;101373.19;4933472;29;20051;-74
2023/07/09 09:07:13;;;;;;;18.25;7.85;;;;;;;30.08;100.00;101368.34;4930620;29;20611;-74
2023/07/09 09:09:44;;;;;;;18.30;7.75;;;;;;;30.23;100.00;101372.31;4930411;29;20051;-74
2023/07/09 09:12:20;;;;;;;18.98;7.63;;;;;;;30.38;100.00;101371.94;4930181;29;20059;-73
2023/07/09 09:14:57;;;;;;;16.60;7.45;;;;;;;30.55;100.00;101361.00;4930698;29;20138;-73
2023/07/09 09:17:29;;;;;;;17.40;7.35;;;;;;;30.66;100.00;101367.38;4925700;29;21301;-74
2023/07/09 09:20:00;;;;;;;18.20;7.30;;;;;;;30.76;100.00;101362.78;4925575;29;20051;-74
2023/07/09 09:22:48;;;;;;;19.10;7.65;;;;;;;30.81;100.00;101358.28;4930058;29;20147;-74
2023/07/09 09:25:15;;;;;;;18.88;7.28;;;;;;;30.87;100.00;101368.41;4928826;29;20062;-74
2023/07/09 09:27:42;;;;;;;18.38;7.80;;;;;;;30.91;100.00;101345.88;4929282;29;20059;-74
2023/07/09 09:30:23;;;;;;;18.60;7.18;;;;;;;30.97;100.00;101358.06;4928742;29;20047;-73
2023/07/09 09:33:07;;;;;;;18.13;7.30;;;;;;;31.09;100.00;101358.66;4927359;29;20095;-74
2023/07/09 09:35:40;;;;;;;19.67;6.95;;;;;;;31.20;100.00;101362.13;4926718;29;20475;-73
2023/07/09 09:38:22;;;;;;;18.77;6.90;;;;;;;31.26;100.00;101362.78;4925373;29;20139;-72
2023/07/09 09:40:49;;;;;;;18.00;7.53;;;;;;;31.34;100.00;101356.44;4925090;29;20426;-73
2023/07/09 09:43:19;;;;;;;17.95;7.68;;;;;;;31.43;100.00;101344.53;4928340;29;20051;-74
2023/07/09 09:45:48;;;;;;;17.80;7.75;;;;;;;31.59;100.00;101361.50;4929600;29;20051;-74
2023/07/09 09:48:26;;;;;;;18.77;7.68;;;;;;;31.65;100.00;101349.91;4930467;28;20079;-74
2023/07/09 09:50:53;;;;;;;16.98;6.70;;;;;;;31.71;100.00;101351.34;4928517;29;20102;-75
2023/07/09 09:53:23;;;;;;;15.90;7.35;;;;;;;31.77;100.00;101352.00;4931616;29;20103;-73
2023/07/09 09:55:55;;;;;;;18.02;6.88;;;;;;;31.88;100.00;101346.06;4927433;29;20062;-74
2023/07/09 09:58:28;;;;;;;18.33;7.20;;;;;;;31.93;100.00;101348.09;4943950;28;20098;-74
2023/07/09 10:00:56;;;;;;;14.95;7.28;;;;;;;32.04;100.00;101349.94;4932882;29;20083;-74
2023/07/09 10:03:33;;;;;;;17.98;7.10;;;;;;;32.11;100.00;101352.94;4928185;29;20083;-74
2023/07/09 10:06:27;;;;;;;16.88;6.50;;;;;;;32.21;100.00;101353.25;4927011;29;20903;-74
2023/07/09 10:09:06;;;;;;;17.75;6.47;;;;;;;32.30;100.00;101347.06;4926904;29;20513;-75
2023/07/09 10:11:57;;;;;;;16.80;6.20;;;;;;;32.41;100.00;101343.97;4930574;29;20079;-75
2023/07/09 10:14:58;;;;;;;16.70;6.90;;;;;;;32.58;100.00;101342.28;4927035;29;20055;-74
2023/07/09 10:17:43;;;;;;;14.25;6.97;;;;;;;32.72;100.00;101348.75;4928105;29;20491;-72
2023/07/09 10:20:25;;;;;;;18.73;7.15;;;;;;;32.77;100.00;101334.22;4928658;29;20520;-74
2023/07/09 10:23:12;;;;;;;16.97;6.80;;;;;;;32.83;100.00;101342.75;4926454;29;20518;-74
2023/07/09 10:26:03;;;;;;;16.42;7.15;;;;;;;32.84;100.00;101338.56;4927057;29;20311;-74
2023/07/09 10:28:49;;;;;;;10.80;4.20;;;;;;;32.59;93.07;101338.06;4929808;29;20078;-75
2023/07/09 10:31:41;;;;;;;12.07;5.47;;;;;;;32.73;96.16;101330.94;4928368;29;20083;-74
2023/07/09 10:34:17;;;;;;;10.85;5.10;;;;;;;32.74;91.83;101320.19;4925699;29;20054;-74
2023/07/09 10:36:58;;;;;;;13.98;5.30;;;;;;;32.87;91.81;101308.66;4928154;29;20058;-74
2023/07/09 10:39:33;;;;;;;11.82;4.85;;;;;;;33.08;92.55;101318.09;4928888;29;20079;-74
2023/07/09 10:42:01;;;;;;;11.63;4.72;;;;;;;33.16;90.96;101313.94;4929098;29;20043;-75
2023/07/09 10:44:38;;;;;;;12.55;5.15;;;;;;;33.08;89.00;101303.69;4928675;29;20142;-75
2023/07/09 10:47:14;;;;;;;12.27;5.22;;;;;;;33.27;90.42;101307.91;4926383;29;20130;-73
2023/07/09 10:49:43;;;;;;;12.73;5.18;;;;;;;33.48;91.04;101294.25;4929734;29;20062;-74
2023/07/09 10:52:26;;;;;;;14.65;5.13;;;;;;;33.67;91.46;101296.13;4929319;29;20048;-75
2023/07/09 10:55:04;;;;;;;13.05;5.05;;;;;;;33.75;87.61;101302.72;4926438;29;20087;-74
2023/07/09 10:57:40;;;;;;;14.18;5.10;;;;;;;33.76;88.75;101313.69;4926742;29;20086;-74
2023/07/09 11:00:15;;;;;;;10.80;5.30;;;;;;;33.80;88.45;101311.22;4925324;29;20044;-74
2023/07/09 11:02:43;;;;;;;13.45;5.15;;;;;;;33.65;86.12;101319.75;4928337;29;20423;-74
2023/07/09 11:05:10;;;;;;;12.75;4.47;;;;;;;33.72;86.77;101307.53;4928215;29;20056;-75
2023/07/09 11:07:47;;;;;;;13.93;3.92;;;;;;;33.59;83.65;101310.47;4923604;29;20056;-74
2023/07/09 11:10:23;;;;;;;13.55;5.78;;;;;;;33.67;83.17;101302.66;4928582;29;20135;-74
2023/07/09 11:13:01;;;;;;;11.18;4.68;;;;;;;33.80;85.80;101305.44;4923217;29;20462;-73
2023/07/09 11:15:34;;;;;;;13.95;5.30;;;;;;;33.95;85.32;101305.56;4930582;29;20052;-73
2023/07/09 11:18:05;;;;;;;12.05;4.63;;;;;;;34.07;82.65;101300.22;4925074;29;20523;-75
2023/07/09 11:20:42;;;;;;;11.07;4.53;;;;;;;33.94;83.33;101304.00;4923035;29;20051;-74
2023/07/09 11:23:25;;;;;;;12.60;4.80;;;;;;;33.96;85.27;101295.56;4929368;29;20473;-73